LTAR

Sivas Airport

Sivas, Turkey
TAF LTAR 161640Z 1618/1703 34012KT 9999 SCT040 BECMG 1618/1620 CAVOK
Issued Valid From Valid To
Jul-16 @ 16:40 UTC
(3 hours ago)
Jul-16 @ 18:00 UTC
(2 hours ago)
Jul-17 @ 03:00 UTC
(in 7 hours)
Jul-16 @ 18:00 to Jul-17 @ 03:00
TAF LTAR 161640Z 1618/1703 34012KT 9999 SCT040
Wind Visibility Clouds
340° at 12 knots 10,000+ meters
  • Scattered at 4,000' AGL
Becoming Jul-16 @ 18:00 to Jul-17 @ 03:00
BECMG 1618/1620 CAVOK
Wind Visibility Clouds Conditions
340° at 12 knots 10,000+ meters
  • No significant clouds
TAF LTAR 161640Z 1618/1703 34012KT 9999 SCT040 BECMG 1618/1620 CAVOK
Issued Jul-16 @ 16:40 UTC
(3 hours ago)
Valid From Jul-16 @ 18:00 UTC
(2 hours ago)
Valid To Jul-17 @ 03:00 UTC
(in 7 hours)
Jul-16 @ 18:00 - Jul-17 @ 03:00
Wind Visibility
340° at 12 knots 10,000+ meters
Clouds
  • Scattered at 4,000' AGL
Becoming Jul-16 @ 18:00 - Jul-17 @ 03:00
Wind Visibility
340° at 12 knots 10,000+ meters
Clouds
  • No significant clouds
Conditions